Lac Du Flambeau, Wisconsin
Current Conditions -  °F | °C
As of 8:15 AM on Saturday 25 Oct 2014 (Local Time) from KARV Reporting Station
Clear Clear  
Wind Chill: 45°   Ceiling: Unl
Heat Index: 49°   Visibility: 10mi
Dew Point: 39°   Wind: 10mph
Humidity: 67%   Direction: 290°WNW
Pressure: 29.84"   Gusts: 16mph
Location:  45.97°N, 89.89°W
Report Text: KARV 251315Z AUTO 29009G14KT 10SM CLR 10/04 A2984 RMK AO2 T00960038
Loading
Personal Weather Stations






























Interactive Weather Map
Tropical Storm Tracking
New forecast layout! Learn more

10-Day Weather Forecast

Advertisements
Track Severe Weather on mobile